sensor_id;sensor_type;location;lat;lon;timestamp;P1;durP1;ratioP1;P2;durP2;ratioP2
75009;SDS011;63564;46.840;18.336;2023-08-01T00:00:34;7.93;;;3.45;;
75009;SDS011;63564;46.840;18.336;2023-08-01T00:03:34;7.60;;;3.67;;
75009;SDS011;63564;46.840;18.336;2023-08-01T00:06:35;7.40;;;3.33;;
75009;SDS011;63564;46.840;18.336;2023-08-01T00:09:35;8.00;;;3.40;;
75009;SDS011;63564;46.840;18.336;2023-08-01T00:12:35;6.73;;;3.40;;
75009;SDS011;63564;46.840;18.336;2023-08-01T00:15:36;6.30;;;3.10;;
75009;SDS011;63564;46.840;18.336;2023-08-01T00:18:36;7.17;;;3.60;;
75009;SDS011;63564;46.840;18.336;2023-08-01T00:21:37;8.30;;;3.33;;
75009;SDS011;63564;46.840;18.336;2023-08-01T00:24:37;6.03;;;3.30;;
75009;SDS011;63564;46.840;18.336;2023-08-01T00:27:38;6.23;;;3.20;;
75009;SDS011;63564;46.840;18.336;2023-08-01T00:30:39;7.32;;;3.50;;
75009;SDS011;63564;46.840;18.336;2023-08-01T00:33:40;6.05;;;3.67;;
75009;SDS011;63564;46.840;18.336;2023-08-01T00:36:40;6.03;;;3.25;;
75009;SDS011;63564;46.840;18.336;2023-08-01T00:39:40;6.30;;;3.07;;
75009;SDS011;63564;46.840;18.336;2023-08-01T00:42:41;7.33;;;3.50;;
75009;SDS011;63564;46.840;18.336;2023-08-01T00:45:41;8.50;;;3.40;;
75009;SDS011;63564;46.840;18.336;2023-08-01T00:48:42;6.60;;;3.50;;
75009;SDS011;63564;46.840;18.336;2023-08-01T00:51:43;6.40;;;3.23;;
75009;SDS011;63564;46.840;18.336;2023-08-01T00:54:44;6.95;;;3.47;;
75009;SDS011;63564;46.840;18.336;2023-08-01T00:57:44;6.45;;;3.42;;
75009;SDS011;63564;46.840;18.336;2023-08-01T01:00:46;6.93;;;3.50;;
75009;SDS011;63564;46.840;18.336;2023-08-01T01:03:47;7.22;;;3.45;;
75009;SDS011;63564;46.840;18.336;2023-08-01T01:07:06;7.10;;;3.70;;
75009;SDS011;63564;46.840;18.336;2023-08-01T01:10:07;7.63;;;3.70;;
75009;SDS011;63564;46.840;18.336;2023-08-01T01:13:08;6.65;;;3.78;;
75009;SDS011;63564;46.840;18.336;2023-08-01T01:16:09;6.90;;;3.33;;
75009;SDS011;63564;46.840;18.336;2023-08-01T01:19:09;7.87;;;3.90;;
75009;SDS011;63564;46.840;18.336;2023-08-01T01:22:10;8.57;;;3.75;;
75009;SDS011;63564;46.840;18.336;2023-08-01T01:25:11;7.22;;;3.70;;
75009;SDS011;63564;46.840;18.336;2023-08-01T01:28:12;6.73;;;3.20;;
75009;SDS011;63564;46.840;18.336;2023-08-01T01:31:14;6.13;;;3.20;;
75009;SDS011;63564;46.840;18.336;2023-08-01T01:34:15;7.00;;;3.45;;
75009;SDS011;63564;46.840;18.336;2023-08-01T01:37:16;7.20;;;3.70;;
75009;SDS011;63564;46.840;18.336;2023-08-01T01:40:16;7.87;;;3.80;;
75009;SDS011;63564;46.840;18.336;2023-08-01T01:43:17;7.32;;;3.80;;
75009;SDS011;63564;46.840;18.336;2023-08-01T01:46:17;7.63;;;3.50;;
75009;SDS011;63564;46.840;18.336;2023-08-01T01:49:17;8.30;;;3.47;;
75009;SDS011;63564;46.840;18.336;2023-08-01T01:52:18;7.30;;;3.70;;
75009;SDS011;63564;46.840;18.336;2023-08-01T01:55:18;7.67;;;3.90;;
75009;SDS011;63564;46.840;18.336;2023-08-01T01:58:19;7.27;;;3.80;;
75009;SDS011;63564;46.840;18.336;2023-08-01T02:01:19;8.20;;;3.90;;
75009;SDS011;63564;46.840;18.336;2023-08-01T02:04:19;7.15;;;3.65;;
75009;SDS011;63564;46.840;18.336;2023-08-01T02:07:20;8.07;;;3.72;;
75009;SDS011;63564;46.840;18.336;2023-08-01T02:10:20;6.93;;;3.50;;
75009;SDS011;63564;46.840;18.336;2023-08-01T02:13:21;9.33;;;4.37;;
75009;SDS011;63564;46.840;18.336;2023-08-01T02:16:21;7.80;;;3.67;;
75009;SDS011;63564;46.840;18.336;2023-08-01T02:19:22;8.15;;;3.78;;
75009;SDS011;63564;46.840;18.336;2023-08-01T02:22:23;7.10;;;3.53;;
75009;SDS011;63564;46.840;18.336;2023-08-01T02:25:24;9.37;;;3.67;;
75009;SDS011;63564;46.840;18.336;2023-08-01T02:28:25;6.55;;;3.40;;
75009;SDS011;63564;46.840;18.336;2023-08-01T02:31:25;8.03;;;4.20;;
75009;SDS011;63564;46.840;18.336;2023-08-01T02:34:25;11.60;;;5.00;;
75009;SDS011;63564;46.840;18.336;2023-08-01T02:37:26;8.93;;;4.00;;
75009;SDS011;63564;46.840;18.336;2023-08-01T02:40:26;6.83;;;3.60;;
75009;SDS011;63564;46.840;18.336;2023-08-01T02:43:26;6.80;;;3.57;;
75009;SDS011;63564;46.840;18.336;2023-08-01T02:46:27;6.17;;;3.40;;
75009;SDS011;63564;46.840;18.336;2023-08-01T02:49:29;7.13;;;3.80;;
75009;SDS011;63564;46.840;18.336;2023-08-01T02:52:29;7.90;;;4.00;;
75009;SDS011;63564;46.840;18.336;2023-08-01T02:55:30;8.27;;;4.00;;
75009;SDS011;63564;46.840;18.336;2023-08-01T02:58:30;7.43;;;3.83;;
75009;SDS011;63564;46.840;18.336;2023-08-01T03:01:32;7.75;;;4.03;;
75009;SDS011;63564;46.840;18.336;2023-08-01T03:04:32;8.50;;;3.70;;
75009;SDS011;63564;46.840;18.336;2023-08-01T03:07:32;8.20;;;4.17;;
75009;SDS011;63564;46.840;18.336;2023-08-01T03:10:33;8.70;;;4.70;;
75009;SDS011;63564;46.840;18.336;2023-08-01T03:13:34;9.02;;;4.47;;
75009;SDS011;63564;46.840;18.336;2023-08-01T03:16:34;8.30;;;4.40;;
75009;SDS011;63564;46.840;18.336;2023-08-01T03:19:34;8.07;;;4.00;;
75009;SDS011;63564;46.840;18.336;2023-08-01T03:22:35;6.73;;;3.77;;
75009;SDS011;63564;46.840;18.336;2023-08-01T03:25:35;8.27;;;3.97;;
75009;SDS011;63564;46.840;18.336;2023-08-01T03:28:35;8.00;;;3.87;;
75009;SDS011;63564;46.840;18.336;2023-08-01T03:31:36;8.60;;;3.97;;
75009;SDS011;63564;46.840;18.336;2023-08-01T03:34:36;7.73;;;3.83;;
75009;SDS011;63564;46.840;18.336;2023-08-01T03:37:39;8.10;;;3.75;;
75009;SDS011;63564;46.840;18.336;2023-08-01T03:40:40;7.28;;;3.30;;
75009;SDS011;63564;46.840;18.336;2023-08-01T03:43:41;7.63;;;3.72;;
75009;SDS011;63564;46.840;18.336;2023-08-01T03:46:41;7.27;;;3.60;;
75009;SDS011;63564;46.840;18.336;2023-08-01T03:49:41;7.60;;;3.37;;
75009;SDS011;63564;46.840;18.336;2023-08-01T03:52:42;6.77;;;3.30;;
75009;SDS011;63564;46.840;18.336;2023-08-01T03:55:43;7.32;;;3.45;;
75009;SDS011;63564;46.840;18.336;2023-08-01T03:58:44;8.37;;;3.50;;
75009;SDS011;63564;46.840;18.336;2023-08-01T04:01:44;9.10;;;4.20;;
75009;SDS011;63564;46.840;18.336;2023-08-01T04:04:45;8.27;;;3.85;;
75009;SDS011;63564;46.840;18.336;2023-08-01T04:07:45;11.53;;;4.07;;
75009;SDS011;63564;46.840;18.336;2023-08-01T04:10:46;8.07;;;3.50;;
75009;SDS011;63564;46.840;18.336;2023-08-01T04:13:46;9.47;;;3.63;;
75009;SDS011;63564;46.840;18.336;2023-08-01T04:16:46;8.27;;;3.67;;
75009;SDS011;63564;46.840;18.336;2023-08-01T04:19:47;8.40;;;3.80;;
75009;SDS011;63564;46.840;18.336;2023-08-01T04:22:47;9.90;;;3.67;;
75009;SDS011;63564;46.840;18.336;2023-08-01T04:25:48;7.97;;;3.35;;
75009;SDS011;63564;46.840;18.336;2023-08-01T04:28:48;7.57;;;3.60;;
75009;SDS011;63564;46.840;18.336;2023-08-01T04:31:48;7.40;;;3.83;;
75009;SDS011;63564;46.840;18.336;2023-08-01T04:34:49;7.40;;;3.80;;
75009;SDS011;63564;46.840;18.336;2023-08-01T04:37:49;6.67;;;3.50;;
75009;SDS011;63564;46.840;18.336;2023-08-01T04:40:49;6.77;;;3.73;;
75009;SDS011;63564;46.840;18.336;2023-08-01T04:43:50;7.60;;;3.50;;
75009;SDS011;63564;46.840;18.336;2023-08-01T04:46:50;7.63;;;3.53;;
75009;SDS011;63564;46.840;18.336;2023-08-01T04:49:51;6.55;;;3.70;;
75009;SDS011;63564;46.840;18.336;2023-08-01T04:52:51;6.38;;;3.42;;
75009;SDS011;63564;46.840;18.336;2023-08-01T04:55:51;7.37;;;3.97;;
75009;SDS011;63564;46.840;18.336;2023-08-01T04:58:52;8.27;;;4.90;;
75009;SDS011;63564;46.840;18.336;2023-08-01T05:01:52;8.73;;;4.40;;
75009;SDS011;63564;46.840;18.336;2023-08-01T05:04:53;7.70;;;3.87;;
75009;SDS011;63564;46.840;18.336;2023-08-01T05:07:53;6.55;;;3.63;;
75009;SDS011;63564;46.840;18.336;2023-08-01T05:10:53;7.70;;;3.67;;
75009;SDS011;63564;46.840;18.336;2023-08-01T05:13:54;6.13;;;3.30;;
75009;SDS011;63564;46.840;18.336;2023-08-01T05:16:54;7.83;;;3.13;;
75009;SDS011;63564;46.840;18.336;2023-08-01T05:19:55;7.83;;;3.10;;
75009;SDS011;63564;46.840;18.336;2023-08-01T05:22:57;6.20;;;3.17;;
75009;SDS011;63564;46.840;18.336;2023-08-01T05:25:57;6.38;;;2.85;;
75009;SDS011;63564;46.840;18.336;2023-08-01T05:28:58;8.37;;;3.30;;
75009;SDS011;63564;46.840;18.336;2023-08-01T05:31:58;5.80;;;2.67;;
75009;SDS011;63564;46.840;18.336;2023-08-01T05:34:58;6.93;;;3.08;;
75009;SDS011;63564;46.840;18.336;2023-08-01T05:37:59;6.40;;;2.90;;
75009;SDS011;63564;46.840;18.336;2023-08-01T05:41:00;6.90;;;3.00;;
75009;SDS011;63564;46.840;18.336;2023-08-01T05:44:00;8.27;;;2.90;;
75009;SDS011;63564;46.840;18.336;2023-08-01T05:47:00;6.47;;;3.13;;
75009;SDS011;63564;46.840;18.336;2023-08-01T05:50:01;5.50;;;2.80;;
75009;SDS011;63564;46.840;18.336;2023-08-01T05:53:01;6.77;;;2.87;;
75009;SDS011;63564;46.840;18.336;2023-08-01T05:56:02;6.37;;;3.20;;
75009;SDS011;63564;46.840;18.336;2023-08-01T05:59:02;6.18;;;2.80;;
75009;SDS011;63564;46.840;18.336;2023-08-01T06:02:03;6.70;;;3.10;;
75009;SDS011;63564;46.840;18.336;2023-08-01T06:05:04;7.10;;;3.15;;
75009;SDS011;63564;46.840;18.336;2023-08-01T06:08:06;5.88;;;2.88;;
75009;SDS011;63564;46.840;18.336;2023-08-01T06:11:06;7.30;;;2.85;;
75009;SDS011;63564;46.840;18.336;2023-08-01T06:14:07;5.93;;;3.00;;
75009;SDS011;63564;46.840;18.336;2023-08-01T06:17:07;5.50;;;2.80;;
75009;SDS011;63564;46.840;18.336;2023-08-01T06:20:08;5.60;;;3.00;;
75009;SDS011;63564;46.840;18.336;2023-08-01T06:23:09;5.60;;;2.97;;
75009;SDS011;63564;46.840;18.336;2023-08-01T06:26:09;5.53;;;3.23;;
75009;SDS011;63564;46.840;18.336;2023-08-01T06:29:09;5.65;;;3.08;;
75009;SDS011;63564;46.840;18.336;2023-08-01T06:32:10;5.50;;;3.00;;
75009;SDS011;63564;46.840;18.336;2023-08-01T06:35:11;5.87;;;3.00;;
75009;SDS011;63564;46.840;18.336;2023-08-01T06:38:11;6.53;;;3.20;;
75009;SDS011;63564;46.840;18.336;2023-08-01T06:41:11;7.73;;;3.57;;
75009;SDS011;63564;46.840;18.336;2023-08-01T06:44:12;6.57;;;3.35;;
75009;SDS011;63564;46.840;18.336;2023-08-01T06:47:12;6.27;;;2.90;;
75009;SDS011;63564;46.840;18.336;2023-08-01T06:50:13;7.70;;;3.30;;
75009;SDS011;63564;46.840;18.336;2023-08-01T06:53:13;6.70;;;3.10;;
75009;SDS011;63564;46.840;18.336;2023-08-01T06:56:13;7.77;;;3.10;;
75009;SDS011;63564;46.840;18.336;2023-08-01T06:59:14;5.50;;;3.03;;
75009;SDS011;63564;46.840;18.336;2023-08-01T07:02:15;5.25;;;2.80;;
75009;SDS011;63564;46.840;18.336;2023-08-01T07:05:15;7.17;;;2.93;;
75009;SDS011;63564;46.840;18.336;2023-08-01T07:08:16;6.87;;;3.23;;
75009;SDS011;63564;46.840;18.336;2023-08-01T07:11:16;7.63;;;3.40;;
75009;SDS011;63564;46.840;18.336;2023-08-01T07:14:16;7.03;;;3.17;;
75009;SDS011;63564;46.840;18.336;2023-08-01T07:17:17;6.00;;;3.10;;
75009;SDS011;63564;46.840;18.336;2023-08-01T07:20:17;5.67;;;2.87;;
75009;SDS011;63564;46.840;18.336;2023-08-01T07:23:19;6.43;;;2.90;;
75009;SDS011;63564;46.840;18.336;2023-08-01T07:26:19;6.00;;;2.80;;
75009;SDS011;63564;46.840;18.336;2023-08-01T07:29:19;6.27;;;3.10;;
75009;SDS011;63564;46.840;18.336;2023-08-01T07:32:20;5.97;;;2.67;;
75009;SDS011;63564;46.840;18.336;2023-08-01T07:35:20;5.70;;;3.03;;
75009;SDS011;63564;46.840;18.336;2023-08-01T07:38:21;6.43;;;3.57;;
75009;SDS011;63564;46.840;18.336;2023-08-01T07:41:21;6.30;;;3.03;;
75009;SDS011;63564;46.840;18.336;2023-08-01T07:44:22;6.33;;;2.70;;
75009;SDS011;63564;46.840;18.336;2023-08-01T07:47:22;4.77;;;2.67;;
75009;SDS011;63564;46.840;18.336;2023-08-01T07:50:24;6.45;;;3.28;;
75009;SDS011;63564;46.840;18.336;2023-08-01T07:53:26;10.93;;;4.15;;
75009;SDS011;63564;46.840;18.336;2023-08-01T07:56:27;5.80;;;2.78;;
75009;SDS011;63564;46.840;18.336;2023-08-01T07:59:27;7.30;;;3.13;;
75009;SDS011;63564;46.840;18.336;2023-08-01T08:02:27;5.40;;;2.80;;
75009;SDS011;63564;46.840;18.336;2023-08-01T08:05:28;5.90;;;3.07;;
75009;SDS011;63564;46.840;18.336;2023-08-01T08:08:28;5.90;;;2.80;;
75009;SDS011;63564;46.840;18.336;2023-08-01T08:11:28;5.55;;;2.75;;
75009;SDS011;63564;46.840;18.336;2023-08-01T08:14:29;5.43;;;2.70;;
75009;SDS011;63564;46.840;18.336;2023-08-01T08:17:30;6.97;;;3.40;;
75009;SDS011;63564;46.840;18.336;2023-08-01T08:20:30;6.80;;;3.47;;
75009;SDS011;63564;46.840;18.336;2023-08-01T08:23:31;6.65;;;2.90;;
75009;SDS011;63564;46.840;18.336;2023-08-01T08:26:32;5.93;;;3.30;;
75009;SDS011;63564;46.840;18.336;2023-08-01T08:29:37;6.03;;;2.92;;
75009;SDS011;63564;46.840;18.336;2023-08-01T08:32:37;5.60;;;3.00;;
75009;SDS011;63564;46.840;18.336;2023-08-01T08:35:37;5.85;;;2.80;;
75009;SDS011;63564;46.840;18.336;2023-08-01T08:38:38;5.63;;;2.70;;
75009;SDS011;63564;46.840;18.336;2023-08-01T08:41:39;7.63;;;3.20;;
75009;SDS011;63564;46.840;18.336;2023-08-01T08:44:48;6.25;;;2.63;;
75009;SDS011;63564;46.840;18.336;2023-08-01T08:47:55;5.87;;;2.90;;
75009;SDS011;63564;46.840;18.336;2023-08-01T08:50:59;8.63;;;3.45;;
75009;SDS011;63564;46.840;18.336;2023-08-01T08:54:01;7.50;;;3.00;;
75009;SDS011;63564;46.840;18.336;2023-08-01T08:57:03;5.88;;;3.03;;
75009;SDS011;63564;46.840;18.336;2023-08-01T09:00:06;5.53;;;2.87;;
75009;SDS011;63564;46.840;18.336;2023-08-01T09:03:07;6.82;;;2.90;;
75009;SDS011;63564;46.840;18.336;2023-08-01T09:06:18;6.17;;;2.80;;
75009;SDS011;63564;46.840;18.336;2023-08-01T09:09:23;5.68;;;2.90;;
75009;SDS011;63564;46.840;18.336;2023-08-01T09:12:26;6.63;;;2.85;;
75009;SDS011;63564;46.840;18.336;2023-08-01T09:15:26;6.30;;;3.10;;
75009;SDS011;63564;46.840;18.336;2023-08-01T09:18:28;6.15;;;3.03;;
75009;SDS011;63564;46.840;18.336;2023-08-01T09:21:31;6.10;;;3.10;;
75009;SDS011;63564;46.840;18.336;2023-08-01T09:24:35;6.03;;;3.00;;
75009;SDS011;63564;46.840;18.336;2023-08-01T09:27:35;6.20;;;2.97;;
75009;SDS011;63564;46.840;18.336;2023-08-01T09:30:44;7.67;;;3.30;;
75009;SDS011;63564;46.840;18.336;2023-08-01T09:33:49;7.43;;;3.20;;
75009;SDS011;63564;46.840;18.336;2023-08-01T09:36:49;5.53;;;3.00;;
75009;SDS011;63564;46.840;18.336;2023-08-01T09:39:54;6.13;;;3.10;;
75009;SDS011;63564;46.840;18.336;2023-08-01T09:42:55;5.43;;;3.03;;
75009;SDS011;63564;46.840;18.336;2023-08-01T09:46:01;6.77;;;3.10;;
75009;SDS011;63564;46.840;18.336;2023-08-01T09:49:09;6.20;;;3.20;;
75009;SDS011;63564;46.840;18.336;2023-08-01T09:52:12;5.50;;;2.90;;
75009;SDS011;63564;46.840;18.336;2023-08-01T09:55:13;6.50;;;3.27;;
75009;SDS011;63564;46.840;18.336;2023-08-01T09:58:13;5.57;;;2.73;;
75009;SDS011;63564;46.840;18.336;2023-08-01T10:01:16;5.38;;;2.83;;
75009;SDS011;63564;46.840;18.336;2023-08-01T10:04:36;7.40;;;2.90;;
75009;SDS011;63564;46.840;18.336;2023-08-01T10:07:40;5.97;;;3.05;;
75009;SDS011;63564;46.840;18.336;2023-08-01T10:10:41;5.90;;;2.90;;
75009;SDS011;63564;46.840;18.336;2023-08-01T10:13:43;5.67;;;2.70;;
75009;SDS011;63564;46.840;18.336;2023-08-01T10:16:44;5.47;;;2.80;;
75009;SDS011;63564;46.840;18.336;2023-08-01T10:19:45;6.32;;;2.78;;
75009;SDS011;63564;46.840;18.336;2023-08-01T10:22:46;7.38;;;3.35;;
75009;SDS011;63564;46.840;18.336;2023-08-01T10:25:49;5.60;;;3.00;;
75009;SDS011;63564;46.840;18.336;2023-08-01T10:28:51;7.13;;;3.70;;
75009;SDS011;63564;46.840;18.336;2023-08-01T10:31:53;6.90;;;3.85;;
75009;SDS011;63564;46.840;18.336;2023-08-01T10:34:54;6.30;;;4.00;;
75009;SDS011;63564;46.840;18.336;2023-08-01T10:37:54;7.20;;;4.10;;
75009;SDS011;63564;46.840;18.336;2023-08-01T10:41:06;6.13;;;4.20;;
75009;SDS011;63564;46.840;18.336;2023-08-01T10:47:24;6.60;;;3.90;;
75009;SDS011;63564;46.840;18.336;2023-08-01T10:50:26;7.55;;;3.80;;
75009;SDS011;63564;46.840;18.336;2023-08-01T10:53:36;5.90;;;3.90;;
75009;SDS011;63564;46.840;18.336;2023-08-01T10:56:37;5.97;;;3.80;;
75009;SDS011;63564;46.840;18.336;2023-08-01T10:59:38;5.70;;;3.60;;
75009;SDS011;63564;46.840;18.336;2023-08-01T11:02:39;5.70;;;3.45;;
75009;SDS011;63564;46.840;18.336;2023-08-01T11:05:39;7.30;;;3.10;;
75009;SDS011;63564;46.840;18.336;2023-08-01T11:08:40;6.80;;;3.13;;
75009;SDS011;63564;46.840;18.336;2023-08-01T11:11:41;5.43;;;2.90;;
75009;SDS011;63564;46.840;18.336;2023-08-01T11:14:42;5.73;;;3.10;;
75009;SDS011;63564;46.840;18.336;2023-08-01T11:17:43;5.77;;;3.33;;
75009;SDS011;63564;46.840;18.336;2023-08-01T11:20:47;5.25;;;3.03;;
75009;SDS011;63564;46.840;18.336;2023-08-01T11:23:48;6.97;;;3.13;;
75009;SDS011;63564;46.840;18.336;2023-08-01T11:26:48;5.40;;;3.10;;
75009;SDS011;63564;46.840;18.336;2023-08-01T11:29:50;6.22;;;3.05;;
75009;SDS011;63564;46.840;18.336;2023-08-01T11:32:50;6.10;;;3.10;;
75009;SDS011;63564;46.840;18.336;2023-08-01T11:35:51;5.88;;;2.97;;
75009;SDS011;63564;46.840;18.336;2023-08-01T11:38:54;6.37;;;3.10;;
75009;SDS011;63564;46.840;18.336;2023-08-01T11:41:57;7.32;;;2.90;;
75009;SDS011;63564;46.840;18.336;2023-08-01T11:45:07;6.40;;;2.77;;
75009;SDS011;63564;46.840;18.336;2023-08-01T11:48:13;5.53;;;3.00;;
75009;SDS011;63564;46.840;18.336;2023-08-01T11:51:13;6.38;;;2.90;;
75009;SDS011;63564;46.840;18.336;2023-08-01T11:54:14;6.43;;;2.90;;
75009;SDS011;63564;46.840;18.336;2023-08-01T11:57:15;6.22;;;2.70;;
75009;SDS011;63564;46.840;18.336;2023-08-01T12:00:20;7.57;;;2.77;;
75009;SDS011;63564;46.840;18.336;2023-08-01T12:03:22;5.97;;;2.90;;
75009;SDS011;63564;46.840;18.336;2023-08-01T12:06:22;5.50;;;2.80;;
75009;SDS011;63564;46.840;18.336;2023-08-01T12:09:23;5.22;;;2.65;;
75009;SDS011;63564;46.840;18.336;2023-08-01T12:12:26;5.80;;;2.60;;
75009;SDS011;63564;46.840;18.336;2023-08-01T12:15:27;5.78;;;2.60;;
75009;SDS011;63564;46.840;18.336;2023-08-01T12:18:28;5.80;;;2.73;;
75009;SDS011;63564;46.840;18.336;2023-08-01T12:21:30;8.60;;;2.87;;
75009;SDS011;63564;46.840;18.336;2023-08-01T12:24:31;5.47;;;2.70;;
75009;SDS011;63564;46.840;18.336;2023-08-01T12:27:33;6.38;;;2.95;;
75009;SDS011;63564;46.840;18.336;2023-08-01T12:30:34;8.47;;;2.70;;
75009;SDS011;63564;46.840;18.336;2023-08-01T12:33:34;5.47;;;2.40;;
75009;SDS011;63564;46.840;18.336;2023-08-01T12:36:34;6.40;;;2.50;;
75009;SDS011;63564;46.840;18.336;2023-08-01T12:39:35;6.63;;;2.70;;
75009;SDS011;63564;46.840;18.336;2023-08-01T12:42:35;5.77;;;2.50;;
75009;SDS011;63564;46.840;18.336;2023-08-01T12:45:35;5.90;;;2.70;;
75009;SDS011;63564;46.840;18.336;2023-08-01T12:48:36;5.50;;;2.40;;
75009;SDS011;63564;46.840;18.336;2023-08-01T12:51:37;5.23;;;2.53;;
75009;SDS011;63564;46.840;18.336;2023-08-01T12:54:37;5.43;;;2.50;;
75009;SDS011;63564;46.840;18.336;2023-08-01T12:57:38;3.93;;;2.27;;
75009;SDS011;63564;46.840;18.336;2023-08-01T13:00:42;4.97;;;2.60;;
75009;SDS011;63564;46.840;18.336;2023-08-01T13:03:43;5.68;;;2.42;;
75009;SDS011;63564;46.840;18.336;2023-08-01T13:06:44;6.40;;;2.43;;
75009;SDS011;63564;46.840;18.336;2023-08-01T13:09:44;4.68;;;2.30;;
75009;SDS011;63564;46.840;18.336;2023-08-01T13:12:45;5.80;;;2.40;;
75009;SDS011;63564;46.840;18.336;2023-08-01T13:15:45;7.07;;;2.60;;
75009;SDS011;63564;46.840;18.336;2023-08-01T13:18:46;5.13;;;2.60;;
75009;SDS011;63564;46.840;18.336;2023-08-01T13:21:48;8.45;;;2.40;;
75009;SDS011;63564;46.840;18.336;2023-08-01T13:24:48;5.27;;;2.30;;
75009;SDS011;63564;46.840;18.336;2023-08-01T13:27:48;7.57;;;2.50;;
75009;SDS011;63564;46.840;18.336;2023-08-01T13:30:49;5.40;;;2.40;;
75009;SDS011;63564;46.840;18.336;2023-08-01T13:33:49;6.77;;;2.60;;
75009;SDS011;63564;46.840;18.336;2023-08-01T13:36:50;5.87;;;2.40;;
75009;SDS011;63564;46.840;18.336;2023-08-01T13:39:50;6.33;;;2.63;;
75009;SDS011;63564;46.840;18.336;2023-08-01T13:42:50;6.33;;;2.80;;
75009;SDS011;63564;46.840;18.336;2023-08-01T13:45:51;5.70;;;2.57;;
75009;SDS011;63564;46.840;18.336;2023-08-01T13:48:52;5.45;;;2.70;;
75009;SDS011;63564;46.840;18.336;2023-08-01T13:51:53;4.53;;;2.40;;
75009;SDS011;63564;46.840;18.336;2023-08-01T13:54:53;5.57;;;2.40;;
75009;SDS011;63564;46.840;18.336;2023-08-01T13:57:54;6.05;;;2.45;;
75009;SDS011;63564;46.840;18.336;2023-08-01T14:00:54;5.60;;;2.57;;
75009;SDS011;63564;46.840;18.336;2023-08-01T14:03:54;4.63;;;2.20;;
75009;SDS011;63564;46.840;18.336;2023-08-01T14:06:55;4.47;;;2.30;;
75009;SDS011;63564;46.840;18.336;2023-08-01T14:09:55;4.97;;;2.30;;
75009;SDS011;63564;46.840;18.336;2023-08-01T14:12:56;4.70;;;2.10;;
75009;SDS011;63564;46.840;18.336;2023-08-01T14:15:56;5.33;;;2.40;;
75009;SDS011;63564;46.840;18.336;2023-08-01T14:18:57;5.95;;;2.35;;
75009;SDS011;63564;46.840;18.336;2023-08-01T14:21:58;5.20;;;2.37;;
75009;SDS011;63564;46.840;18.336;2023-08-01T14:24:58;5.23;;;2.53;;
75009;SDS011;63564;46.840;18.336;2023-08-01T14:27:59;5.30;;;2.20;;
75009;SDS011;63564;46.840;18.336;2023-08-01T14:31:00;7.07;;;2.13;;
75009;SDS011;63564;46.840;18.336;2023-08-01T14:34:01;5.23;;;2.23;;
75009;SDS011;63564;46.840;18.336;2023-08-01T14:37:02;4.95;;;2.28;;
75009;SDS011;63564;46.840;18.336;2023-08-01T14:40:02;5.17;;;2.20;;
75009;SDS011;63564;46.840;18.336;2023-08-01T14:43:03;5.40;;;2.38;;
75009;SDS011;63564;46.840;18.336;2023-08-01T14:46:04;6.37;;;2.40;;
75009;SDS011;63564;46.840;18.336;2023-08-01T14:49:04;4.80;;;2.40;;
75009;SDS011;63564;46.840;18.336;2023-08-01T14:52:05;4.60;;;2.30;;
75009;SDS011;63564;46.840;18.336;2023-08-01T14:55:06;6.15;;;2.25;;
75009;SDS011;63564;46.840;18.336;2023-08-01T14:58:07;5.17;;;2.10;;
75009;SDS011;63564;46.840;18.336;2023-08-01T15:01:16;5.80;;;2.20;;
75009;SDS011;63564;46.840;18.336;2023-08-01T15:04:18;5.50;;;2.40;;
75009;SDS011;63564;46.840;18.336;2023-08-01T15:07:18;5.27;;;2.27;;
75009;SDS011;63564;46.840;18.336;2023-08-01T15:10:19;6.72;;;2.58;;
75009;SDS011;63564;46.840;18.336;2023-08-01T15:13:19;5.73;;;2.40;;
75009;SDS011;63564;46.840;18.336;2023-08-01T15:16:20;5.50;;;2.23;;
75009;SDS011;63564;46.840;18.336;2023-08-01T15:19:20;5.03;;;2.30;;
75009;SDS011;63564;46.840;18.336;2023-08-01T15:22:20;7.93;;;2.50;;
75009;SDS011;63564;46.840;18.336;2023-08-01T15:25:21;6.30;;;2.30;;
75009;SDS011;63564;46.840;18.336;2023-08-01T15:28:22;6.90;;;2.33;;
75009;SDS011;63564;46.840;18.336;2023-08-01T15:31:23;6.70;;;2.50;;
75009;SDS011;63564;46.840;18.336;2023-08-01T15:34:24;5.07;;;2.33;;
75009;SDS011;63564;46.840;18.336;2023-08-01T15:37:24;5.40;;;2.40;;
75009;SDS011;63564;46.840;18.336;2023-08-01T15:40:24;6.07;;;2.20;;
75009;SDS011;63564;46.840;18.336;2023-08-01T15:43:25;5.73;;;2.43;;
75009;SDS011;63564;46.840;18.336;2023-08-01T15:46:26;9.32;;;3.10;;
75009;SDS011;63564;46.840;18.336;2023-08-01T15:49:26;8.73;;;3.40;;
75009;SDS011;63564;46.840;18.336;2023-08-01T15:52:27;8.80;;;3.30;;
75009;SDS011;63564;46.840;18.336;2023-08-01T15:55:27;7.90;;;3.03;;
75009;SDS011;63564;46.840;18.336;2023-08-01T15:58:28;7.23;;;3.27;;
75009;SDS011;63564;46.840;18.336;2023-08-01T16:01:31;7.00;;;3.05;;
75009;SDS011;63564;46.840;18.336;2023-08-01T16:04:32;7.27;;;3.30;;
75009;SDS011;63564;46.840;18.336;2023-08-01T16:07:33;6.57;;;2.78;;
75009;SDS011;63564;46.840;18.336;2023-08-01T16:10:34;5.55;;;2.58;;
75009;SDS011;63564;46.840;18.336;2023-08-01T16:13:34;6.10;;;2.37;;
75009;SDS011;63564;46.840;18.336;2023-08-01T16:16:35;5.17;;;2.03;;
75009;SDS011;63564;46.840;18.336;2023-08-01T16:19:36;6.05;;;2.47;;
75009;SDS011;63564;46.840;18.336;2023-08-01T16:22:36;5.80;;;2.50;;
75009;SDS011;63564;46.840;18.336;2023-08-01T16:25:37;4.70;;;2.00;;
75009;SDS011;63564;46.840;18.336;2023-08-01T16:28:38;4.75;;;1.80;;
75009;SDS011;63564;46.840;18.336;2023-08-01T16:31:39;4.87;;;1.80;;
75009;SDS011;63564;46.840;18.336;2023-08-01T16:34:40;5.20;;;1.80;;
75009;SDS011;63564;46.840;18.336;2023-08-01T16:37:41;4.33;;;1.80;;
75009;SDS011;63564;46.840;18.336;2023-08-01T16:40:42;5.13;;;1.88;;
75009;SDS011;63564;46.840;18.336;2023-08-01T16:43:42;4.17;;;1.67;;
75009;SDS011;63564;46.840;18.336;2023-08-01T16:46:43;5.40;;;2.17;;
75009;SDS011;63564;46.840;18.336;2023-08-01T16:49:46;4.30;;;1.60;;
75009;SDS011;63564;46.840;18.336;2023-08-01T16:52:48;4.57;;;1.60;;
75009;SDS011;63564;46.840;18.336;2023-08-01T16:55:49;4.43;;;1.70;;
75009;SDS011;63564;46.840;18.336;2023-08-01T16:58:50;5.57;;;1.95;;
75009;SDS011;63564;46.840;18.336;2023-08-01T17:01:52;5.00;;;1.80;;
75009;SDS011;63564;46.840;18.336;2023-08-01T17:04:53;3.60;;;1.70;;
75009;SDS011;63564;46.840;18.336;2023-08-01T17:07:54;5.50;;;2.27;;
75009;SDS011;63564;46.840;18.336;2023-08-01T17:10:55;5.63;;;2.15;;
75009;SDS011;63564;46.840;18.336;2023-08-01T17:13:56;7.32;;;2.40;;
75009;SDS011;63564;46.840;18.336;2023-08-01T17:16:56;6.70;;;2.10;;
75009;SDS011;63564;46.840;18.336;2023-08-01T17:19:57;5.80;;;2.13;;
75009;SDS011;63564;46.840;18.336;2023-08-01T17:22:58;6.45;;;2.40;;
75009;SDS011;63564;46.840;18.336;2023-08-01T17:25:59;7.10;;;2.90;;
75009;SDS011;63564;46.840;18.336;2023-08-01T17:29:00;7.20;;;2.80;;
75009;SDS011;63564;46.840;18.336;2023-08-01T17:32:01;6.07;;;2.30;;
75009;SDS011;63564;46.840;18.336;2023-08-01T17:35:02;7.97;;;3.30;;
75009;SDS011;63564;46.840;18.336;2023-08-01T17:38:03;6.10;;;2.72;;
75009;SDS011;63564;46.840;18.336;2023-08-01T17:41:26;6.25;;;2.42;;
75009;SDS011;63564;46.840;18.336;2023-08-01T17:44:26;7.00;;;2.63;;
75009;SDS011;63564;46.840;18.336;2023-08-01T17:47:28;6.53;;;2.70;;
75009;SDS011;63564;46.840;18.336;2023-08-01T17:50:28;7.88;;;3.00;;
75009;SDS011;63564;46.840;18.336;2023-08-01T17:53:30;7.23;;;2.93;;
75009;SDS011;63564;46.840;18.336;2023-08-01T17:56:32;10.43;;;3.22;;